createdAt,value
2022-12-04T00:04:30.200Z,75.06
2022-12-04T00:15:27.166Z,74.77
2022-12-04T00:25:39.419Z,74.74
2022-12-04T00:35:47.274Z,74.44
2022-12-04T00:45:54.450Z,73.97
2022-12-04T00:56:00.851Z,73.32
2022-12-04T01:06:07.106Z,72.78
2022-12-04T01:16:16.352Z,72.19
2022-12-04T01:26:20.739Z,72.01
2022-12-04T01:36:27.132Z,72.11
2022-12-04T01:46:33.294Z,72.03
2022-12-04T01:56:43.222Z,72.07
2022-12-04T02:06:48.781Z,72.26
2022-12-04T02:17:07.364Z,72.74
2022-12-04T02:27:27.040Z,72.59
2022-12-04T02:37:36.390Z,72.06
2022-12-04T02:47:43.821Z,72.20
2022-12-04T02:57:52.762Z,71.61
2022-12-04T03:08:02.975Z,71.56
2022-12-04T03:18:16.829Z,70.95
2022-12-04T03:28:28.585Z,71.05
2022-12-04T03:38:41.360Z,70.52
2022-12-04T03:48:49.316Z,71.04
2022-12-04T03:58:58.554Z,70.98
2022-12-04T04:09:06.346Z,71.18
2022-12-04T04:19:34.038Z,70.75
2022-12-04T04:29:38.736Z,71.27
2022-12-04T04:39:54.250Z,70.86
2022-12-04T04:50:00.816Z,71.22
2022-12-04T05:00:11.297Z,70.42
2022-12-04T05:22:03.479Z,70.96
2022-12-04T05:32:07.026Z,71.33
2022-12-04T05:42:11.534Z,71.54
2022-12-04T05:52:14.371Z,71.32
2022-12-04T06:02:18.791Z,71.81
2022-12-04T06:12:21.734Z,71.94
2022-12-04T06:22:25.755Z,72.08
2022-12-04T06:32:29.315Z,71.79
2022-12-04T06:42:33.739Z,71.87
2022-12-04T06:52:36.761Z,72.08
2022-12-04T07:02:41.173Z,73.17
2022-12-04T07:12:44.254Z,73.43
2022-12-04T07:22:48.465Z,72.57
2022-12-04T07:32:51.178Z,72.76
2022-12-04T07:42:55.506Z,72.85
2022-12-04T07:52:58.597Z,72.76
2022-12-04T08:03:03.003Z,73.01
2022-12-04T08:13:06.153Z,73.25
2022-12-04T08:23:10.538Z,73.01
2022-12-04T08:33:13.365Z,73.23
2022-12-04T08:43:17.776Z,74.80
2022-12-04T08:53:21.325Z,73.20
2022-12-04T09:03:30.705Z,73.71
2022-12-04T09:13:34.656Z,74.21
2022-12-04T09:23:40.663Z,74.09
2022-12-04T09:33:44.043Z,74.05
2022-12-04T09:43:55.691Z,74.34
2022-12-04T09:54:03.687Z,74.68
2022-12-04T10:04:10.879Z,74.62
2022-12-04T10:14:25.252Z,74.79
2022-12-04T10:24:41.072Z,75.81
2022-12-04T10:34:45.931Z,74.05
2022-12-04T10:44:50.422Z,74.26
2022-12-04T10:54:57.891Z,74.18
2022-12-04T11:05:05.428Z,74.50
2022-12-04T11:15:16.030Z,74.63
2022-12-04T11:25:22.990Z,74.52
2022-12-04T11:35:28.296Z,74.37
2022-12-04T11:45:34.306Z,75.17
2022-12-04T11:55:46.388Z,74.87
2022-12-04T12:06:13.378Z,75.38
2022-12-04T12:16:26.506Z,74.90
2022-12-04T12:26:42.397Z,75.32
2022-12-04T12:36:52.604Z,75.49
2022-12-04T12:47:03.031Z,75.55
2022-12-04T12:57:13.685Z,75.68
2022-12-04T13:07:28.739Z,75.24
2022-12-04T13:17:35.343Z,75.88
2022-12-04T13:27:48.074Z,75.78
2022-12-04T13:38:08.771Z,76.39
2022-12-04T13:48:13.082Z,75.53
2022-12-04T13:58:29.582Z,75.87
2022-12-04T14:08:39.361Z,76.48
2022-12-04T14:18:48.763Z,76.73
2022-12-04T14:28:55.174Z,77.14
2022-12-04T14:39:05.864Z,77.21
2022-12-04T14:49:28.129Z,77.61
2022-12-04T14:59:41.699Z,77.00
2022-12-04T15:10:11.512Z,77.42
2022-12-04T15:20:18.234Z,77.42
2022-12-04T15:30:24.906Z,77.39
2022-12-04T15:40:30.901Z,77.15
2022-12-04T15:50:35.194Z,77.43
2022-12-04T16:00:40.308Z,77.46
2022-12-04T16:10:44.886Z,77.83
2022-12-04T16:20:48.051Z,78.03
2022-12-04T16:30:54.010Z,78.04
2022-12-04T16:40:57.750Z,81.37
2022-12-04T16:51:02.367Z,78.68
2022-12-04T17:01:07.640Z,78.35
2022-12-04T17:11:13.995Z,78.78
2022-12-04T17:21:17.100Z,79.32
2022-12-04T17:31:23.619Z,80.79
2022-12-04T17:41:26.932Z,80.87
2022-12-04T17:51:31.399Z,80.48
2022-12-04T18:01:34.536Z,81.41
2022-12-04T18:11:41.189Z,81.49
2022-12-04T18:21:44.217Z,81.37
2022-12-04T18:31:48.973Z,81.43
2022-12-04T18:41:55.153Z,81.28
2022-12-04T18:52:00.213Z,81.83
2022-12-04T19:02:03.280Z,82.21
2022-12-04T19:12:08.767Z,82.89
2022-12-04T19:22:11.627Z,84.00
2022-12-04T19:32:16.038Z,83.71
2022-12-04T19:42:19.059Z,84.06
2022-12-04T19:52:23.739Z,83.74
2022-12-04T20:02:27.098Z,84.76
2022-12-04T20:12:31.425Z,85.00
2022-12-04T20:22:35.418Z,85.70
2022-12-04T20:32:39.855Z,86.30
2022-12-04T20:42:42.907Z,87.18
2022-12-04T20:52:47.179Z,87.71
2022-12-04T21:02:50.379Z,88.01
2022-12-04T21:13:11.825Z,88.99
2022-12-04T21:23:14.771Z,88.83
2022-12-04T21:33:19.101Z,89.01
2022-12-04T21:43:21.993Z,89.26
2022-12-04T21:53:26.586Z,90.62
2022-12-04T22:03:29.702Z,90.57
2022-12-04T22:13:34.217Z,92.02
2022-12-04T22:23:37.721Z,91.15
2022-12-04T22:33:43.130Z,91.73
2022-12-04T22:43:47.415Z,92.38
2022-12-04T22:53:54.992Z,91.76
2022-12-04T23:03:58.771Z,92.31
2022-12-04T23:14:04.911Z,92.28
2022-12-04T23:24:08.570Z,92.28
2022-12-04T23:34:13.030Z,93.22
2022-12-04T23:44:16.339Z,92.86
2022-12-04T23:54:20.950Z,92.60
